AirNav   Everest Fuels
 
 1384 users online  

2IA2 MercyOne Elkader Medical Center Heliport
Elkader, Iowa, USA

GOING TO ELKADER?


FAA INFORMATION EFFECTIVE 30 JANUARY 2020

Location

FAA Identifier: 2IA2
Lat/Long: 42-51-36.3700N 091-24-54.5100W
42-51.606167N 091-24.908500W
42.8601028,-91.4151417
(estimated)
Elevation: 774 ft. / 236 m (estimated)
Variation: 02E (1985)
Time zone: UTC -6 (UTC -5 during Daylight Saving Time)
Zip code: 52043

Heliport Operations

Heliport use: Private use, MEDICAL.
Activation date: 12/1982
Control tower: no
ARTCC: CHICAGO CENTER
FSS: FORT DODGE FLIGHT SERVICE STATION
Attendance: CONTINUOUS
Wind indicator: yes
Segmented circle: no
Lights: FOR STROBE LGT CALL - 563-245-7000.

Heliport Communications

WX AWOS-3 at PDC (16 nm NE): 119.925 (608-326-9122)

Nearby radio navigation aids

VOR radial/distance  VOR name  Freq  Var
UKNr163/25.8WAUKON VOR/DME116.6005E

 
NDB name  Hdg/Dist  Freq  Var  ID
WAPSIE044/34.020600EIIB .. .. -...

Heliport Services

Runway Information

Helipad H1

Dimensions: 70 x 70 ft. / 21 x 21 m
Surface: concrete
Latitude: 42-51.606167N
Longitude: 091-24.908500W
Elevation: 774.0 ft.
Traffic pattern: leftleft
Obstructions: pole, lighted

Heliport Ownership and Management from official FAA records

Ownership: Privately-owned
Owner: CENTRAL COMMUNITY HOSPITAL
901 DAVIDSON NW
ELKADER, IA 52043
Phone 563-245-7000
D/B/A MERCYONE ELKADER MEDICAL CENTER
Manager: BROOKE KENSINGER, HOSPITAL ADMIN
901 DAVIDSON NW
ELKADER, IA 52043
Phone (563) 245-7085

Additional Remarks

FOR CD CTC CHICAGO ARTCC AT 630-906-8921.

Instrument Procedures

There are no published instrument procedures at 2IA2.

Some nearby airports with instrument procedures:

KPDC - Prairie du Chien Municipal Airport (16 nm NE)
3Y2 - George L Scott Municipal Airport (18 nm NW)
KOLZ - Oelwein Municipal Airport (27 nm SW)
KDEH - Decorah Municipal Airport (29 nm NW)
KIIB - Independence Municipal Airport (34 nm SW)
 
Loc | Ops | Rwys | IFR | FBO | Links
Com | Nav | Svcs | Stats | Notes
Area around 2IA2 (MercyOne Elkader Medical Center Heliport)
 
Road maps at: MapQuest Bing Google
 
Aerial photo
No photo
 
Sectional chart

 
Airport distance calculator
Flying to MercyOne Elkader Medical Center Heliport? Find the distance to fly.

From to 2IA2

Sunrise and sunset
Times for 17-Feb-2020
 Local
(UTC-6)
 Zulu
(UTC)
Morning civil twilight06:3212:32
Sunrise07:0113:01
Sunset17:3823:38
Evening civil twilight18:0700:07

Current date and time
Zulu (UTC)  17-Feb-2020 17:07:45
Local (UTC-6)  17-Feb-2020 11:07:45
 
METAR
KPDC 
16nm NE 
171655Z AUTO 11007KT 5SM -SN OVC012 01/M02 A2996 RMK AO2 T00071022
KOLZ 
27nm SW 
171655Z AUTO 14013G19KT 4SM BR CLR 00/00 A2990 RMK A01
KDEH 
28nm NW 
171655Z AUTO 14009G15KT 10SM FEW080 M00/M03 A2990 RMK AO2
TAF
KDBQ 
42nm SE 
171608Z 1716/1812 13010KT 2SM -SN BR OVC025 TEMPO 1716/1718 1SM -SN BR BKN015 FM171800 13010KT 1 1/2SM -RA BR OVC008 FM172100 13008KT 1SM -RA BR OVC004 FM180400 31014G20KT P6SM OVC010
KALO 
47nm SW 
171459Z 1715/1812 12008KT 5SM -RA OVC035 FM171700 13007KT 2SM -SNRA OVC015 FM172000 13005KT 3SM -RA OVC008 FM172200 09005KT P6SM VCSH OVC008 FM180200 32011G19KT P6SM OVC008
NOTAMs
Click for the latest NOTAMs
NOTAMs are issued by the DoD/FAA and will open in a separate window not controlled by AirNav.

 

 
 

Would you like to see your business listed on this page?

 If your business provides an interesting product or service to pilots, flight crews, aircraft, or users of the MercyOne Elkader Medical Center Heliport, you should consider listing it here.  To start the listing process, click on the button below
 
Add a business
 

Other Pages about MercyOne Elkader Medical Center Heliport

Update a link
 
Copyright © AirNav, LLC. All rights reserved. Privacy Policy  Contact